sensor_id;sensor_type;location;lat;lon;timestamp;P1;durP1;ratioP1;P2;durP2;ratioP2
50126;SDS011;36024;47.974;16.398;2022-09-09T00:00:44;1.93;;;0.90;;
50126;SDS011;36024;47.974;16.398;2022-09-09T00:03:16;1.90;;;0.90;;
50126;SDS011;36024;47.974;16.398;2022-09-09T00:05:58;1.17;;;0.70;;
50126;SDS011;36024;47.974;16.398;2022-09-09T00:08:33;1.00;;;0.90;;
50126;SDS011;36024;47.974;16.398;2022-09-09T00:11:09;0.90;;;0.80;;
50126;SDS011;36024;47.974;16.398;2022-09-09T00:13:41;1.13;;;0.80;;
50126;SDS011;36024;47.974;16.398;2022-09-09T00:16:20;1.03;;;0.80;;
50126;SDS011;36024;47.974;16.398;2022-09-09T00:19:00;1.07;;;0.97;;
50126;SDS011;36024;47.974;16.398;2022-09-09T00:21:51;0.73;;;0.73;;
50126;SDS011;36024;47.974;16.398;2022-09-09T00:24:29;0.80;;;0.80;;
50126;SDS011;36024;47.974;16.398;2022-09-09T00:27:01;0.70;;;0.70;;
50126;SDS011;36024;47.974;16.398;2022-09-09T00:32:13;1.27;;;0.97;;
50126;SDS011;36024;47.974;16.398;2022-09-09T00:37:53;0.97;;;0.80;;
50126;SDS011;36024;47.974;16.398;2022-09-09T00:40:24;0.90;;;0.80;;
50126;SDS011;36024;47.974;16.398;2022-09-09T00:43:41;0.87;;;0.87;;
50126;SDS011;36024;47.974;16.398;2022-09-09T00:49:08;1.07;;;1.00;;
50126;SDS011;36024;47.974;16.398;2022-09-09T00:58:07;1.23;;;0.80;;
50126;SDS011;36024;47.974;16.398;2022-09-09T01:00:42;1.00;;;0.80;;
50126;SDS011;36024;47.974;16.398;2022-09-09T01:06:20;0.80;;;0.80;;
50126;SDS011;36024;47.974;16.398;2022-09-09T01:09:04;2.30;;;1.00;;
50126;SDS011;36024;47.974;16.398;2022-09-09T01:14:45;1.13;;;0.93;;
50126;SDS011;36024;47.974;16.398;2022-09-09T01:17:20;1.00;;;1.00;;
50126;SDS011;36024;47.974;16.398;2022-09-09T01:23:02;1.97;;;0.83;;
50126;SDS011;36024;47.974;16.398;2022-09-09T01:28:31;0.80;;;0.80;;
50126;SDS011;36024;47.974;16.398;2022-09-09T01:31:06;1.30;;;0.90;;
50126;SDS011;36024;47.974;16.398;2022-09-09T01:33:41;1.13;;;0.90;;
50126;SDS011;36024;47.974;16.398;2022-09-09T01:36:09;0.80;;;0.80;;
50126;SDS011;36024;47.974;16.398;2022-09-09T01:38:51;1.30;;;1.00;;
50126;SDS011;36024;47.974;16.398;2022-09-09T01:41:19;0.90;;;0.90;;
50126;SDS011;36024;47.974;16.398;2022-09-09T01:43:57;1.00;;;0.90;;
50126;SDS011;36024;47.974;16.398;2022-09-09T01:46:24;1.50;;;0.90;;
50126;SDS011;36024;47.974;16.398;2022-09-09T01:48:51;1.93;;;0.90;;
50126;SDS011;36024;47.974;16.398;2022-09-09T01:51:20;1.03;;;0.90;;
50126;SDS011;36024;47.974;16.398;2022-09-09T01:53:47;2.43;;;1.10;;
50126;SDS011;36024;47.974;16.398;2022-09-09T01:59:04;1.23;;;0.90;;
50126;SDS011;36024;47.974;16.398;2022-09-09T02:07:15;0.83;;;0.77;;
50126;SDS011;36024;47.974;16.398;2022-09-09T02:10:04;2.20;;;0.80;;
50126;SDS011;36024;47.974;16.398;2022-09-09T02:13:07;0.87;;;0.80;;
50126;SDS011;36024;47.974;16.398;2022-09-09T02:15:42;1.03;;;0.90;;
50126;SDS011;36024;47.974;16.398;2022-09-09T02:18:13;1.47;;;0.97;;
50126;SDS011;36024;47.974;16.398;2022-09-09T02:20:43;0.87;;;0.87;;
50126;SDS011;36024;47.974;16.398;2022-09-09T02:23:11;1.23;;;0.83;;
50126;SDS011;36024;47.974;16.398;2022-09-09T02:25:39;1.90;;;1.10;;
50126;SDS011;36024;47.974;16.398;2022-09-09T02:28:16;1.83;;;0.90;;
50126;SDS011;36024;47.974;16.398;2022-09-09T02:30:44;1.07;;;0.97;;
50126;SDS011;36024;47.974;16.398;2022-09-09T02:33:15;1.10;;;1.00;;
50126;SDS011;36024;47.974;16.398;2022-09-09T02:35:45;1.03;;;0.90;;
50126;SDS011;36024;47.974;16.398;2022-09-09T02:38:16;0.97;;;0.90;;
50126;SDS011;36024;47.974;16.398;2022-09-09T02:40:54;1.77;;;0.90;;
50126;SDS011;36024;47.974;16.398;2022-09-09T02:43:22;2.80;;;1.10;;
50126;SDS011;36024;47.974;16.398;2022-09-09T02:45:58;2.27;;;0.90;;
50126;SDS011;36024;47.974;16.398;2022-09-09T02:56:46;1.20;;;1.00;;
50126;SDS011;36024;47.974;16.398;2022-09-09T02:59:17;1.17;;;1.07;;
50126;SDS011;36024;47.974;16.398;2022-09-09T03:01:44;1.50;;;1.10;;
50126;SDS011;36024;47.974;16.398;2022-09-09T03:04:14;1.07;;;1.00;;
50126;SDS011;36024;47.974;16.398;2022-09-09T03:06:41;1.43;;;1.10;;
50126;SDS011;36024;47.974;16.398;2022-09-09T03:09:16;2.10;;;1.10;;
50126;SDS011;36024;47.974;16.398;2022-09-09T03:11:43;1.40;;;1.13;;
50126;SDS011;36024;47.974;16.398;2022-09-09T03:14:11;1.20;;;1.10;;
50126;SDS011;36024;47.974;16.398;2022-09-09T03:16:39;1.67;;;1.33;;
50126;SDS011;36024;47.974;16.398;2022-09-09T03:19:05;1.00;;;0.90;;
50126;SDS011;36024;47.974;16.398;2022-09-09T03:21:33;2.33;;;1.07;;
50126;SDS011;36024;47.974;16.398;2022-09-09T03:24:00;1.23;;;1.00;;
50126;SDS011;36024;47.974;16.398;2022-09-09T03:26:26;1.17;;;1.07;;
50126;SDS011;36024;47.974;16.398;2022-09-09T03:28:54;1.30;;;1.20;;
50126;SDS011;36024;47.974;16.398;2022-09-09T03:31:22;2.37;;;1.20;;
50126;SDS011;36024;47.974;16.398;2022-09-09T03:33:50;1.20;;;0.90;;
50126;SDS011;36024;47.974;16.398;2022-09-09T03:36:18;2.70;;;1.20;;
50126;SDS011;36024;47.974;16.398;2022-09-09T03:38:45;3.07;;;1.17;;
50126;SDS011;36024;47.974;16.398;2022-09-09T03:41:12;1.60;;;1.30;;
50126;SDS011;36024;47.974;16.398;2022-09-09T03:43:39;1.07;;;1.00;;
50126;SDS011;36024;47.974;16.398;2022-09-09T03:46:06;1.63;;;0.90;;
50126;SDS011;36024;47.974;16.398;2022-09-09T03:48:33;1.33;;;1.03;;
50126;SDS011;36024;47.974;16.398;2022-09-09T03:51:00;0.80;;;0.80;;
50126;SDS011;36024;47.974;16.398;2022-09-09T03:53:30;1.30;;;1.20;;
50126;SDS011;36024;47.974;16.398;2022-09-09T03:55:57;1.43;;;0.90;;
50126;SDS011;36024;47.974;16.398;2022-09-09T03:58:28;1.47;;;1.00;;
50126;SDS011;36024;47.974;16.398;2022-09-09T04:01:01;0.90;;;0.90;;
50126;SDS011;36024;47.974;16.398;2022-09-09T04:03:32;1.50;;;1.03;;
50126;SDS011;36024;47.974;16.398;2022-09-09T04:05:59;1.77;;;1.10;;
50126;SDS011;36024;47.974;16.398;2022-09-09T04:08:29;2.03;;;1.10;;
50126;SDS011;36024;47.974;16.398;2022-09-09T04:10:59;2.67;;;1.30;;
50126;SDS011;36024;47.974;16.398;2022-09-09T04:13:28;2.20;;;1.00;;
50126;SDS011;36024;47.974;16.398;2022-09-09T04:15:57;2.30;;;1.10;;
50126;SDS011;36024;47.974;16.398;2022-09-09T04:18:25;1.67;;;1.13;;
50126;SDS011;36024;47.974;16.398;2022-09-09T04:20:52;2.37;;;1.10;;
50126;SDS011;36024;47.974;16.398;2022-09-09T04:23:22;3.23;;;1.20;;
50126;SDS011;36024;47.974;16.398;2022-09-09T04:25:54;2.60;;;1.30;;
50126;SDS011;36024;47.974;16.398;2022-09-09T04:28:22;2.27;;;1.20;;
50126;SDS011;36024;47.974;16.398;2022-09-09T04:30:51;2.93;;;1.30;;
50126;SDS011;36024;47.974;16.398;2022-09-09T04:33:19;3.07;;;1.40;;
50126;SDS011;36024;47.974;16.398;2022-09-09T04:35:48;1.93;;;1.30;;
50126;SDS011;36024;47.974;16.398;2022-09-09T04:38:17;3.00;;;1.40;;
50126;SDS011;36024;47.974;16.398;2022-09-09T04:40:48;1.57;;;1.40;;
50126;SDS011;36024;47.974;16.398;2022-09-09T04:43:15;3.27;;;1.40;;
50126;SDS011;36024;47.974;16.398;2022-09-09T04:45:43;2.13;;;1.60;;
50126;SDS011;36024;47.974;16.398;2022-09-09T04:48:10;1.53;;;1.43;;
50126;SDS011;36024;47.974;16.398;2022-09-09T04:50:37;1.67;;;1.30;;
50126;SDS011;36024;47.974;16.398;2022-09-09T04:53:04;3.00;;;1.60;;
50126;SDS011;36024;47.974;16.398;2022-09-09T04:55:34;2.93;;;1.90;;
50126;SDS011;36024;47.974;16.398;2022-09-09T04:58:04;2.20;;;1.50;;
50126;SDS011;36024;47.974;16.398;2022-09-09T05:00:32;3.20;;;1.97;;
50126;SDS011;36024;47.974;16.398;2022-09-09T05:03:04;3.57;;;2.10;;
50126;SDS011;36024;47.974;16.398;2022-09-09T05:05:32;3.60;;;2.03;;
50126;SDS011;36024;47.974;16.398;2022-09-09T05:08:05;2.00;;;1.60;;
50126;SDS011;36024;47.974;16.398;2022-09-09T05:10:33;2.00;;;1.80;;
50126;SDS011;36024;47.974;16.398;2022-09-09T05:13:00;2.37;;;1.90;;
50126;SDS011;36024;47.974;16.398;2022-09-09T05:15:29;1.87;;;1.70;;
50126;SDS011;36024;47.974;16.398;2022-09-09T05:17:59;2.20;;;2.00;;
50126;SDS011;36024;47.974;16.398;2022-09-09T05:20:29;3.93;;;2.13;;
50126;SDS011;36024;47.974;16.398;2022-09-09T05:22:56;3.30;;;2.10;;
50126;SDS011;36024;47.974;16.398;2022-09-09T05:25:26;3.23;;;2.30;;
50126;SDS011;36024;47.974;16.398;2022-09-09T05:27:54;1.73;;;1.63;;
50126;SDS011;36024;47.974;16.398;2022-09-09T05:30:21;2.80;;;2.00;;
50126;SDS011;36024;47.974;16.398;2022-09-09T05:32:50;4.93;;;1.90;;
50126;SDS011;36024;47.974;16.398;2022-09-09T05:35:17;3.17;;;1.80;;
50126;SDS011;36024;47.974;16.398;2022-09-09T05:37:45;2.00;;;1.63;;
50126;SDS011;36024;47.974;16.398;2022-09-09T05:40:12;1.90;;;1.67;;
50126;SDS011;36024;47.974;16.398;2022-09-09T05:42:39;2.07;;;1.70;;
50126;SDS011;36024;47.974;16.398;2022-09-09T05:45:07;2.90;;;1.87;;
50126;SDS011;36024;47.974;16.398;2022-09-09T05:47:36;2.43;;;1.60;;
50126;SDS011;36024;47.974;16.398;2022-09-09T05:50:06;1.40;;;1.23;;
50126;SDS011;36024;47.974;16.398;2022-09-09T05:52:33;4.03;;;1.70;;
50126;SDS011;36024;47.974;16.398;2022-09-09T05:55:00;3.23;;;1.37;;
50126;SDS011;36024;47.974;16.398;2022-09-09T05:57:28;2.50;;;1.50;;
50126;SDS011;36024;47.974;16.398;2022-09-09T05:59:54;1.50;;;1.40;;
50126;SDS011;36024;47.974;16.398;2022-09-09T06:02:21;2.80;;;1.30;;
50126;SDS011;36024;47.974;16.398;2022-09-09T06:04:48;3.73;;;1.30;;
50126;SDS011;36024;47.974;16.398;2022-09-09T06:07:16;2.37;;;1.17;;
50126;SDS011;36024;47.974;16.398;2022-09-09T06:09:43;2.10;;;1.30;;
50126;SDS011;36024;47.974;16.398;2022-09-09T06:12:11;2.27;;;1.30;;
50126;SDS011;36024;47.974;16.398;2022-09-09T06:14:38;4.10;;;1.40;;
50126;SDS011;36024;47.974;16.398;2022-09-09T06:17:11;3.13;;;1.10;;
50126;SDS011;36024;47.974;16.398;2022-09-09T06:19:38;2.03;;;1.20;;
50126;SDS011;36024;47.974;16.398;2022-09-09T06:22:05;3.07;;;1.10;;
50126;SDS011;36024;47.974;16.398;2022-09-09T06:24:35;1.27;;;1.07;;
50126;SDS011;36024;47.974;16.398;2022-09-09T06:27:02;1.40;;;1.00;;
50126;SDS011;36024;47.974;16.398;2022-09-09T06:29:32;1.33;;;1.10;;
50126;SDS011;36024;47.974;16.398;2022-09-09T06:32:00;2.70;;;1.10;;
50126;SDS011;36024;47.974;16.398;2022-09-09T06:34:27;1.13;;;1.00;;
50126;SDS011;36024;47.974;16.398;2022-09-09T06:36:57;1.70;;;0.90;;
50126;SDS011;36024;47.974;16.398;2022-09-09T06:39:30;1.73;;;1.20;;
50126;SDS011;36024;47.974;16.398;2022-09-09T06:41:57;1.10;;;0.97;;
50126;SDS011;36024;47.974;16.398;2022-09-09T06:44:48;2.83;;;1.20;;
50126;SDS011;36024;47.974;16.398;2022-09-09T06:47:32;3.17;;;1.10;;
50126;SDS011;36024;47.974;16.398;2022-09-09T06:50:00;0.80;;;0.70;;
50126;SDS011;36024;47.974;16.398;2022-09-09T06:52:30;1.27;;;1.17;;
50126;SDS011;36024;47.974;16.398;2022-09-09T06:54:58;1.43;;;1.07;;
50126;SDS011;36024;47.974;16.398;2022-09-09T06:57:25;1.47;;;1.00;;
50126;SDS011;36024;47.974;16.398;2022-09-09T07:00:05;1.50;;;1.30;;
50126;SDS011;36024;47.974;16.398;2022-09-09T07:02:32;1.63;;;1.20;;
50126;SDS011;36024;47.974;16.398;2022-09-09T07:05:06;2.70;;;1.30;;
50126;SDS011;36024;47.974;16.398;2022-09-09T07:07:34;2.87;;;1.10;;
50126;SDS011;36024;47.974;16.398;2022-09-09T07:10:01;3.83;;;1.20;;
50126;SDS011;36024;47.974;16.398;2022-09-09T07:12:30;1.63;;;1.20;;
50126;SDS011;36024;47.974;16.398;2022-09-09T07:14:58;2.93;;;1.40;;
50126;SDS011;36024;47.974;16.398;2022-09-09T07:17:25;1.80;;;1.20;;
50126;SDS011;36024;47.974;16.398;2022-09-09T07:19:55;1.50;;;1.30;;
50126;SDS011;36024;47.974;16.398;2022-09-09T07:22:23;1.50;;;1.07;;
50126;SDS011;36024;47.974;16.398;2022-09-09T07:24:49;1.63;;;1.20;;
50126;SDS011;36024;47.974;16.398;2022-09-09T07:27:17;1.47;;;1.10;;
50126;SDS011;36024;47.974;16.398;2022-09-09T07:29:46;1.40;;;1.20;;
50126;SDS011;36024;47.974;16.398;2022-09-09T07:32:13;1.47;;;1.33;;
50126;SDS011;36024;47.974;16.398;2022-09-09T07:34:39;1.10;;;1.00;;
50126;SDS011;36024;47.974;16.398;2022-09-09T07:37:06;2.40;;;1.20;;
50126;SDS011;36024;47.974;16.398;2022-09-09T07:39:34;1.70;;;0.97;;
50126;SDS011;36024;47.974;16.398;2022-09-09T07:42:01;1.33;;;1.10;;
50126;SDS011;36024;47.974;16.398;2022-09-09T07:44:28;1.67;;;1.00;;
50126;SDS011;36024;47.974;16.398;2022-09-09T07:47:08;1.77;;;1.20;;
50126;SDS011;36024;47.974;16.398;2022-09-09T07:49:40;1.30;;;1.00;;
50126;SDS011;36024;47.974;16.398;2022-09-09T07:52:08;2.28;;;1.15;;
50126;SDS011;36024;47.974;16.398;2022-09-09T07:54:37;1.17;;;1.08;;
50126;SDS011;36024;47.974;16.398;2022-09-09T07:57:05;1.00;;;0.98;;
50126;SDS011;36024;47.974;16.398;2022-09-09T07:59:34;2.95;;;1.40;;
50126;SDS011;36024;47.974;16.398;2022-09-09T08:02:02;1.38;;;1.05;;
50126;SDS011;36024;47.974;16.398;2022-09-09T08:04:31;1.42;;;0.93;;
50126;SDS011;36024;47.974;16.398;2022-09-09T08:06:59;1.05;;;0.90;;
50126;SDS011;36024;47.974;16.398;2022-09-09T08:09:30;1.27;;;1.10;;
50126;SDS011;36024;47.974;16.398;2022-09-09T08:12:10;2.35;;;1.20;;
50126;SDS011;36024;47.974;16.398;2022-09-09T08:14:39;2.78;;;1.15;;
50126;SDS011;36024;47.974;16.398;2022-09-09T08:17:06;1.35;;;1.00;;
50126;SDS011;36024;47.974;16.398;2022-09-09T08:19:33;2.00;;;1.13;;
50126;SDS011;36024;47.974;16.398;2022-09-09T08:22:08;1.70;;;1.00;;
50126;SDS011;36024;47.974;16.398;2022-09-09T08:24:38;2.17;;;1.15;;
50126;SDS011;36024;47.974;16.398;2022-09-09T08:27:06;2.00;;;1.08;;
50126;SDS011;36024;47.974;16.398;2022-09-09T08:29:33;1.70;;;1.10;;
50126;SDS011;36024;47.974;16.398;2022-09-09T08:32:00;1.02;;;0.88;;
50126;SDS011;36024;47.974;16.398;2022-09-09T08:34:28;1.85;;;1.02;;
50126;SDS011;36024;47.974;16.398;2022-09-09T08:36:59;3.10;;;1.30;;
50126;SDS011;36024;47.974;16.398;2022-09-09T08:39:32;0.82;;;0.82;;
50126;SDS011;36024;47.974;16.398;2022-09-09T08:42:15;1.95;;;1.10;;
50126;SDS011;36024;47.974;16.398;2022-09-09T08:45:05;1.52;;;1.00;;
50126;SDS011;36024;47.974;16.398;2022-09-09T08:50:37;1.10;;;1.00;;
50126;SDS011;36024;47.974;16.398;2022-09-09T08:53:17;1.10;;;0.88;;
50126;SDS011;36024;47.974;16.398;2022-09-09T08:55:54;2.35;;;0.90;;
50126;SDS011;36024;47.974;16.398;2022-09-09T08:58:32;2.30;;;0.88;;
50126;SDS011;36024;47.974;16.398;2022-09-09T09:11:58;1.45;;;1.23;;
50126;SDS011;36024;47.974;16.398;2022-09-09T09:14:35;1.85;;;1.00;;
50126;SDS011;36024;47.974;16.398;2022-09-09T09:17:16;1.38;;;1.10;;
50126;SDS011;36024;47.974;16.398;2022-09-09T09:19:47;2.45;;;0.80;;
50126;SDS011;36024;47.974;16.398;2022-09-09T09:22:21;1.63;;;0.80;;
50126;SDS011;36024;47.974;16.398;2022-09-09T09:25:03;0.95;;;0.85;;
50126;SDS011;36024;47.974;16.398;2022-09-09T09:30:23;2.55;;;1.00;;
50126;SDS011;36024;47.974;16.398;2022-09-09T09:35:49;1.80;;;0.90;;
50126;SDS011;36024;47.974;16.398;2022-09-09T09:38:19;0.85;;;0.70;;
50126;SDS011;36024;47.974;16.398;2022-09-09T09:41:10;1.48;;;0.80;;
50126;SDS011;36024;47.974;16.398;2022-09-09T09:43:37;2.75;;;0.80;;
50126;SDS011;36024;47.974;16.398;2022-09-09T09:46:20;1.10;;;0.80;;
50126;SDS011;36024;47.974;16.398;2022-09-09T09:49:00;2.65;;;0.77;;
50126;SDS011;36024;47.974;16.398;2022-09-09T09:51:30;1.75;;;0.70;;
50126;SDS011;36024;47.974;16.398;2022-09-09T09:54:05;2.28;;;0.98;;
50126;SDS011;36024;47.974;16.398;2022-09-09T09:56:37;0.80;;;0.60;;
50126;SDS011;36024;47.974;16.398;2022-09-09T09:59:05;0.80;;;0.60;;
50126;SDS011;36024;47.974;16.398;2022-09-09T10:01:49;0.93;;;0.55;;
50126;SDS011;36024;47.974;16.398;2022-09-09T10:04:19;1.08;;;0.60;;
50126;SDS011;36024;47.974;16.398;2022-09-09T10:06:52;1.63;;;0.68;;
50126;SDS011;36024;47.974;16.398;2022-09-09T10:17:16;0.70;;;0.60;;
50126;SDS011;36024;47.974;16.398;2022-09-09T10:19:53;0.98;;;0.70;;
50126;SDS011;36024;47.974;16.398;2022-09-09T10:22:36;1.15;;;0.80;;
50126;SDS011;36024;47.974;16.398;2022-09-09T10:28:07;1.10;;;0.70;;
50126;SDS011;36024;47.974;16.398;2022-09-09T10:36:25;2.97;;;0.82;;
50126;SDS011;36024;47.974;16.398;2022-09-09T10:38:53;1.48;;;0.75;;
50126;SDS011;36024;47.974;16.398;2022-09-09T10:49:48;1.90;;;0.90;;
50126;SDS011;36024;47.974;16.398;2022-09-09T10:52:28;1.17;;;0.77;;
50126;SDS011;36024;47.974;16.398;2022-09-09T10:55:02;2.05;;;0.80;;
50126;SDS011;36024;47.974;16.398;2022-09-09T10:57:42;2.38;;;0.90;;
50126;SDS011;36024;47.974;16.398;2022-09-09T11:00:19;0.90;;;0.75;;
50126;SDS011;36024;47.974;16.398;2022-09-09T11:02:48;1.10;;;0.90;;
50126;SDS011;36024;47.974;16.398;2022-09-09T11:05:21;2.17;;;0.90;;
50126;SDS011;36024;47.974;16.398;2022-09-09T11:10:37;1.30;;;1.00;;
50126;SDS011;36024;47.974;16.398;2022-09-09T11:13:24;1.13;;;0.93;;
50126;SDS011;36024;47.974;16.398;2022-09-09T11:16:05;1.58;;;0.90;;
50126;SDS011;36024;47.974;16.398;2022-09-09T11:18:47;1.38;;;1.05;;
50126;SDS011;36024;47.974;16.398;2022-09-09T11:21:34;1.85;;;0.70;;
50126;SDS011;36024;47.974;16.398;2022-09-09T11:24:10;1.92;;;1.00;;
50126;SDS011;36024;47.974;16.398;2022-09-09T11:27:01;0.88;;;0.80;;
50126;SDS011;36024;47.974;16.398;2022-09-09T11:29:44;1.52;;;0.80;;
50126;SDS011;36024;47.974;16.398;2022-09-09T11:32:27;1.30;;;0.80;;
50126;SDS011;36024;47.974;16.398;2022-09-09T11:35:08;1.10;;;0.90;;
50126;SDS011;36024;47.974;16.398;2022-09-09T11:41:00;1.10;;;0.80;;
50126;SDS011;36024;47.974;16.398;2022-09-09T11:46:14;2.75;;;1.10;;
50126;SDS011;36024;47.974;16.398;2022-09-09T11:48:44;2.50;;;1.13;;
50126;SDS011;36024;47.974;16.398;2022-09-09T11:56:24;2.53;;;0.90;;
50126;SDS011;36024;47.974;16.398;2022-09-09T12:04:15;1.58;;;0.82;;
50126;SDS011;36024;47.974;16.398;2022-09-09T12:09:52;0.88;;;0.80;;
50126;SDS011;36024;47.974;16.398;2022-09-09T12:12:26;0.93;;;0.80;;
50126;SDS011;36024;47.974;16.398;2022-09-09T12:14:56;1.05;;;0.90;;
50126;SDS011;36024;47.974;16.398;2022-09-09T12:17:24;1.65;;;0.90;;
50126;SDS011;36024;47.974;16.398;2022-09-09T12:20:57;1.20;;;0.68;;
50126;SDS011;36024;47.974;16.398;2022-09-09T12:34:38;1.60;;;0.75;;
50126;SDS011;36024;47.974;16.398;2022-09-09T12:39:59;1.38;;;0.80;;
50126;SDS011;36024;47.974;16.398;2022-09-09T12:42:29;2.17;;;0.80;;
50126;SDS011;36024;47.974;16.398;2022-09-09T12:45:15;1.13;;;0.68;;
50126;SDS011;36024;47.974;16.398;2022-09-09T12:47:57;1.10;;;0.60;;
50126;SDS011;36024;47.974;16.398;2022-09-09T12:50:29;1.30;;;0.70;;
50126;SDS011;36024;47.974;16.398;2022-09-09T12:52:58;1.70;;;0.95;;
50126;SDS011;36024;47.974;16.398;2022-09-09T12:55:28;1.48;;;0.75;;
50126;SDS011;36024;47.974;16.398;2022-09-09T12:57:57;1.90;;;0.80;;
50126;SDS011;36024;47.974;16.398;2022-09-09T13:00:25;2.45;;;0.85;;
50126;SDS011;36024;47.974;16.398;2022-09-09T13:02:54;0.88;;;0.77;;
50126;SDS011;36024;47.974;16.398;2022-09-09T13:05:34;0.68;;;0.60;;
50126;SDS011;36024;47.974;16.398;2022-09-09T13:08:02;1.10;;;0.70;;
50126;SDS011;36024;47.974;16.398;2022-09-09T13:10:35;1.00;;;0.70;;
50126;SDS011;36024;47.974;16.398;2022-09-09T13:13:37;0.95;;;0.82;;
50126;SDS011;36024;47.974;16.398;2022-09-09T13:16:06;0.93;;;0.70;;
50126;SDS011;36024;47.974;16.398;2022-09-09T13:18:44;1.25;;;0.60;;
50126;SDS011;36024;47.974;16.398;2022-09-09T13:21:12;1.67;;;0.80;;
50126;SDS011;36024;47.974;16.398;2022-09-09T13:23:39;1.05;;;0.70;;
50126;SDS011;36024;47.974;16.398;2022-09-09T13:26:26;1.80;;;0.70;;
50126;SDS011;36024;47.974;16.398;2022-09-09T13:28:53;1.40;;;0.80;;
50126;SDS011;36024;47.974;16.398;2022-09-09T13:31:27;1.63;;;0.70;;
50126;SDS011;36024;47.974;16.398;2022-09-09T13:33:59;1.00;;;0.70;;
50126;SDS011;36024;47.974;16.398;2022-09-09T13:36:29;2.42;;;0.88;;
50126;SDS011;36024;47.974;16.398;2022-09-09T13:38:58;1.83;;;0.80;;
50126;SDS011;36024;47.974;16.398;2022-09-09T13:41:35;3.15;;;1.08;;
50126;SDS011;36024;47.974;16.398;2022-09-09T13:44:03;2.05;;;1.00;;
50126;SDS011;36024;47.974;16.398;2022-09-09T13:46:37;1.52;;;0.90;;
50126;SDS011;36024;47.974;16.398;2022-09-09T13:51:44;1.50;;;0.82;;
50126;SDS011;36024;47.974;16.398;2022-09-09T13:54:14;2.47;;;0.90;;
50126;SDS011;36024;47.974;16.398;2022-09-09T13:56:42;1.48;;;0.90;;
50126;SDS011;36024;47.974;16.398;2022-09-09T13:59:11;1.88;;;0.80;;
50126;SDS011;36024;47.974;16.398;2022-09-09T14:01:46;0.95;;;0.60;;
50126;SDS011;36024;47.974;16.398;2022-09-09T14:04:15;0.73;;;0.55;;
50126;SDS011;36024;47.974;16.398;2022-09-09T14:06:42;0.57;;;0.50;;
50126;SDS011;36024;47.974;16.398;2022-09-09T14:09:11;0.75;;;0.47;;
50126;SDS011;36024;47.974;16.398;2022-09-09T14:11:38;0.70;;;0.55;;
50126;SDS011;36024;47.974;16.398;2022-09-09T14:14:06;1.95;;;0.60;;
50126;SDS011;36024;47.974;16.398;2022-09-09T14:16:33;1.50;;;0.70;;
50126;SDS011;36024;47.974;16.398;2022-09-09T14:19:00;1.83;;;0.50;;
50126;SDS011;36024;47.974;16.398;2022-09-09T14:21:27;0.60;;;0.60;;
50126;SDS011;36024;47.974;16.398;2022-09-09T14:23:54;0.80;;;0.70;;
50126;SDS011;36024;47.974;16.398;2022-09-09T14:26:24;0.50;;;0.50;;
50126;SDS011;36024;47.974;16.398;2022-09-09T14:28:51;1.40;;;0.70;;
50126;SDS011;36024;47.974;16.398;2022-09-09T14:31:24;0.63;;;0.63;;
50126;SDS011;36024;47.974;16.398;2022-09-09T14:33:52;2.75;;;0.90;;
50126;SDS011;36024;47.974;16.398;2022-09-09T14:36:19;1.60;;;0.60;;
50126;SDS011;36024;47.974;16.398;2022-09-09T14:38:46;0.88;;;0.70;;
50126;SDS011;36024;47.974;16.398;2022-09-09T14:41:14;0.88;;;0.60;;
50126;SDS011;36024;47.974;16.398;2022-09-09T14:43:46;1.95;;;0.85;;
50126;SDS011;36024;47.974;16.398;2022-09-09T14:46:13;2.80;;;0.80;;
50126;SDS011;36024;47.974;16.398;2022-09-09T14:48:41;0.95;;;0.80;;
50126;SDS011;36024;47.974;16.398;2022-09-09T14:53:36;2.08;;;0.82;;
50126;SDS011;36024;47.974;16.398;2022-09-09T14:56:10;1.55;;;0.90;;
50126;SDS011;36024;47.974;16.398;2022-09-09T14:58:42;2.05;;;0.75;;
50126;SDS011;36024;47.974;16.398;2022-09-09T15:01:11;1.95;;;0.98;;
50126;SDS011;36024;47.974;16.398;2022-09-09T15:03:40;1.25;;;0.85;;
50126;SDS011;36024;47.974;16.398;2022-09-09T15:06:08;0.73;;;0.70;;
50126;SDS011;36024;47.974;16.398;2022-09-09T15:08:36;1.42;;;0.80;;
50126;SDS011;36024;47.974;16.398;2022-09-09T15:11:08;5.95;;;1.40;;
50126;SDS011;36024;47.974;16.398;2022-09-09T15:13:35;5.25;;;1.00;;
50126;SDS011;36024;47.974;16.398;2022-09-09T15:16:04;1.67;;;0.80;;
50126;SDS011;36024;47.974;16.398;2022-09-09T15:18:32;1.67;;;0.82;;
50126;SDS011;36024;47.974;16.398;2022-09-09T15:20:59;1.73;;;0.93;;
50126;SDS011;36024;47.974;16.398;2022-09-09T15:23:30;2.05;;;1.00;;
50126;SDS011;36024;47.974;16.398;2022-09-09T15:25:58;1.05;;;0.82;;
50126;SDS011;36024;47.974;16.398;2022-09-09T15:28:25;1.27;;;1.00;;
50126;SDS011;36024;47.974;16.398;2022-09-09T15:30:52;1.90;;;0.80;;
50126;SDS011;36024;47.974;16.398;2022-09-09T15:33:20;1.02;;;0.80;;
50126;SDS011;36024;47.974;16.398;2022-09-09T15:35:48;0.97;;;0.80;;
50126;SDS011;36024;47.974;16.398;2022-09-09T15:38:15;1.07;;;0.70;;
50126;SDS011;36024;47.974;16.398;2022-09-09T15:40:43;1.40;;;0.70;;
50126;SDS011;36024;47.974;16.398;2022-09-09T15:43:10;1.17;;;0.70;;
50126;SDS011;36024;47.974;16.398;2022-09-09T15:45:37;1.00;;;0.80;;
50126;SDS011;36024;47.974;16.398;2022-09-09T15:48:03;0.90;;;0.70;;
50126;SDS011;36024;47.974;16.398;2022-09-09T15:50:30;1.90;;;0.80;;
50126;SDS011;36024;47.974;16.398;2022-09-09T15:52:59;1.13;;;0.77;;
50126;SDS011;36024;47.974;16.398;2022-09-09T15:55:26;0.97;;;0.60;;
50126;SDS011;36024;47.974;16.398;2022-09-09T15:57:52;1.13;;;0.60;;
50126;SDS011;36024;47.974;16.398;2022-09-09T16:00:19;1.80;;;0.70;;
50126;SDS011;36024;47.974;16.398;2022-09-09T16:02:47;1.30;;;0.60;;
50126;SDS011;36024;47.974;16.398;2022-09-09T16:05:15;0.67;;;0.67;;
50126;SDS011;36024;47.974;16.398;2022-09-09T16:07:42;0.80;;;0.80;;
50126;SDS011;36024;47.974;16.398;2022-09-09T16:10:11;2.60;;;0.70;;
50126;SDS011;36024;47.974;16.398;2022-09-09T16:12:39;0.73;;;0.70;;
50126;SDS011;36024;47.974;16.398;2022-09-09T16:15:06;0.60;;;0.60;;
50126;SDS011;36024;47.974;16.398;2022-09-09T16:17:33;1.07;;;0.70;;
50126;SDS011;36024;47.974;16.398;2022-09-09T16:20:04;1.03;;;0.60;;
50126;SDS011;36024;47.974;16.398;2022-09-09T16:22:33;0.40;;;0.40;;
50126;SDS011;36024;47.974;16.398;2022-09-09T16:25:00;0.70;;;0.60;;
50126;SDS011;36024;47.974;16.398;2022-09-09T16:27:26;0.80;;;0.50;;
50126;SDS011;36024;47.974;16.398;2022-09-09T16:29:53;0.70;;;0.63;;
50126;SDS011;36024;47.974;16.398;2022-09-09T16:32:20;1.33;;;0.60;;
50126;SDS011;36024;47.974;16.398;2022-09-09T16:34:46;2.00;;;0.73;;
50126;SDS011;36024;47.974;16.398;2022-09-09T16:37:13;1.13;;;0.57;;
50126;SDS011;36024;47.974;16.398;2022-09-09T16:39:40;1.60;;;0.90;;
50126;SDS011;36024;47.974;16.398;2022-09-09T16:42:06;1.20;;;0.80;;
50126;SDS011;36024;47.974;16.398;2022-09-09T16:44:33;0.70;;;0.70;;
50126;SDS011;36024;47.974;16.398;2022-09-09T16:47:00;1.40;;;0.90;;
50126;SDS011;36024;47.974;16.398;2022-09-09T16:49:27;1.57;;;0.80;;
50126;SDS011;36024;47.974;16.398;2022-09-09T16:51:56;0.97;;;0.90;;
50126;SDS011;36024;47.974;16.398;2022-09-09T16:54:24;1.27;;;0.90;;
50126;SDS011;36024;47.974;16.398;2022-09-09T16:56:53;2.20;;;0.90;;
50126;SDS011;36024;47.974;16.398;2022-09-09T16:59:21;1.00;;;0.90;;
50126;SDS011;36024;47.974;16.398;2022-09-09T17:01:49;1.00;;;0.80;;
50126;SDS011;36024;47.974;16.398;2022-09-09T17:04:18;2.00;;;0.90;;
50126;SDS011;36024;47.974;16.398;2022-09-09T17:06:51;1.10;;;0.87;;